sensor_id;sensor_type;location;lat;lon;timestamp;P1;P2;P0
44871;PMS7003;30602;51.060;17.226;2022-09-03T00:02:25;1;1;1
44871;PMS7003;30602;51.060;17.226;2022-09-03T00:09:54;1;1;1
44871;PMS7003;30602;51.060;17.226;2022-09-03T00:20:58;1;1;1
44871;PMS7003;30602;51.060;17.226;2022-09-03T00:24:18;2;2;2
44871;PMS7003;30602;51.060;17.226;2022-09-03T00:27:54;2;2;2
44871;PMS7003;30602;51.060;17.226;2022-09-03T00:31:44;3;2;2
44871;PMS7003;30602;51.060;17.226;2022-09-03T00:39:27;1;1;1
44871;PMS7003;30602;51.060;17.226;2022-09-03T00:50:09;4;2;2
44871;PMS7003;30602;51.060;17.226;2022-09-03T00:54:07;3;2;2
44871;PMS7003;30602;51.060;17.226;2022-09-03T01:12:51;3;2;2
44871;PMS7003;30602;51.060;17.226;2022-09-03T01:31:22;6;3;3
44871;PMS7003;30602;51.060;17.226;2022-09-03T01:46:32;3;3;3
44871;PMS7003;30602;51.060;17.226;2022-09-03T01:53:17;3;3;3
44871;PMS7003;30602;51.060;17.226;2022-09-03T02:00:25;2;2;2
44871;PMS7003;30602;51.060;17.226;2022-09-03T02:03:54;4;3;3
44871;PMS7003;30602;51.060;17.226;2022-09-03T02:07:47;4;3;3
44871;PMS7003;30602;51.060;17.226;2022-09-03T02:11:04;4;3;3
44871;PMS7003;30602;51.060;17.226;2022-09-03T02:14:35;2;2;1
44871;PMS7003;30602;51.060;17.226;2022-09-03T02:18:06;5;3;3
44871;PMS7003;30602;51.060;17.226;2022-09-03T02:25:18;5;2;2
44871;PMS7003;30602;51.060;17.226;2022-09-03T02:28:50;3;3;2
44871;PMS7003;30602;51.060;17.226;2022-09-03T02:32:00;3;3;3
44871;PMS7003;30602;51.060;17.226;2022-09-03T02:35:10;3;3;3
44871;PMS7003;30602;51.060;17.226;2022-09-03T02:38:20;3;3;2
44871;PMS7003;30602;51.060;17.226;2022-09-03T02:45:28;3;3;3
44871;PMS7003;30602;51.060;17.226;2022-09-03T02:49:12;4;4;3
44871;PMS7003;30602;51.060;17.226;2022-09-03T02:52:53;4;4;3
44871;PMS7003;30602;51.060;17.226;2022-09-03T02:56:26;4;4;3
44871;PMS7003;30602;51.060;17.226;2022-09-03T03:00:09;4;4;3
44871;PMS7003;30602;51.060;17.226;2022-09-03T03:03:38;5;5;4
44871;PMS7003;30602;51.060;17.226;2022-09-03T03:07:11;4;4;3
44871;PMS7003;30602;51.060;17.226;2022-09-03T03:10:44;4;3;3
44871;PMS7003;30602;51.060;17.226;2022-09-03T03:13:56;3;3;2
44871;PMS7003;30602;51.060;17.226;2022-09-03T03:17:07;5;3;3
44871;PMS7003;30602;51.060;17.226;2022-09-03T03:20:35;3;3;2
44871;PMS7003;30602;51.060;17.226;2022-09-03T03:23:55;4;4;2
44871;PMS7003;30602;51.060;17.226;2022-09-03T03:31:17;4;4;4
44871;PMS7003;30602;51.060;17.226;2022-09-03T03:34:30;5;4;4
44871;PMS7003;30602;51.060;17.226;2022-09-03T03:38:09;5;5;4
44871;PMS7003;30602;51.060;17.226;2022-09-03T03:41:50;4;4;4
44871;PMS7003;30602;51.060;17.226;2022-09-03T03:45:19;4;4;4
44871;PMS7003;30602;51.060;17.226;2022-09-03T03:48:31;4;3;2
44871;PMS7003;30602;51.060;17.226;2022-09-03T03:51:51;5;3;3
44871;PMS7003;30602;51.060;17.226;2022-09-03T03:55:18;6;4;4
44871;PMS7003;30602;51.060;17.226;2022-09-03T03:59:17;4;4;3
44871;PMS7003;30602;51.060;17.226;2022-09-03T04:02:47;5;4;3
44871;PMS7003;30602;51.060;17.226;2022-09-03T04:10:07;6;5;4
44871;PMS7003;30602;51.060;17.226;2022-09-03T04:13:35;4;4;3
44871;PMS7003;30602;51.060;17.226;2022-09-03T04:17:04;4;4;3
44871;PMS7003;30602;51.060;17.226;2022-09-03T04:20:12;6;4;4
44871;PMS7003;30602;51.060;17.226;2022-09-03T04:23:54;6;5;4
44871;PMS7003;30602;51.060;17.226;2022-09-03T04:27:27;5;4;3
44871;PMS7003;30602;51.060;17.226;2022-09-03T04:30:36;2;2;2
44871;PMS7003;30602;51.060;17.226;2022-09-03T04:34:19;4;4;3
44871;PMS7003;30602;51.060;17.226;2022-09-03T04:37:29;4;3;3
44871;PMS7003;30602;51.060;17.226;2022-09-03T04:41:11;6;3;3
44871;PMS7003;30602;51.060;17.226;2022-09-03T04:44:31;5;4;3
44871;PMS7003;30602;51.060;17.226;2022-09-03T04:48:02;6;4;3
44871;PMS7003;30602;51.060;17.226;2022-09-03T04:51:18;7;6;5
44871;PMS7003;30602;51.060;17.226;2022-09-03T04:54:43;4;4;3
44871;PMS7003;30602;51.060;17.226;2022-09-03T04:58:14;5;4;4
44871;PMS7003;30602;51.060;17.226;2022-09-03T05:01:22;11;7;5
44871;PMS7003;30602;51.060;17.226;2022-09-03T05:05:14;6;6;5
44871;PMS7003;30602;51.060;17.226;2022-09-03T05:08:48;4;4;3
44871;PMS7003;30602;51.060;17.226;2022-09-03T05:12:31;8;7;6
44871;PMS7003;30602;51.060;17.226;2022-09-03T05:16:32;8;7;6
44871;PMS7003;30602;51.060;17.226;2022-09-03T05:19:43;11;8;6
44871;PMS7003;30602;51.060;17.226;2022-09-03T05:23:14;6;5;5
44871;PMS7003;30602;51.060;17.226;2022-09-03T05:26:50;6;5;4
44871;PMS7003;30602;51.060;17.226;2022-09-03T05:30:34;6;5;5
44871;PMS7003;30602;51.060;17.226;2022-09-03T05:33:42;5;5;4
44871;PMS7003;30602;51.060;17.226;2022-09-03T05:37:15;5;5;4
44871;PMS7003;30602;51.060;17.226;2022-09-03T05:40:23;5;5;4
44871;PMS7003;30602;51.060;17.226;2022-09-03T05:43:32;6;4;4
44871;PMS7003;30602;51.060;17.226;2022-09-03T05:46:52;5;5;5
44871;PMS7003;30602;51.060;17.226;2022-09-03T05:50:21;4;4;3
44871;PMS7003;30602;51.060;17.226;2022-09-03T05:53:30;4;4;3
44871;PMS7003;30602;51.060;17.226;2022-09-03T05:57:04;6;4;3
44871;PMS7003;30602;51.060;17.226;2022-09-03T06:00:32;6;4;3
44871;PMS7003;30602;51.060;17.226;2022-09-03T06:03:45;3;3;2
44871;PMS7003;30602;51.060;17.226;2022-09-03T06:07:06;5;3;3
44871;PMS7003;30602;51.060;17.226;2022-09-03T06:10:36;3;3;2
44871;PMS7003;30602;51.060;17.226;2022-09-03T06:14:16;5;4;3
44871;PMS7003;30602;51.060;17.226;2022-09-03T06:17:47;5;3;3
44871;PMS7003;30602;51.060;17.226;2022-09-03T06:21:18;4;4;3
44871;PMS7003;30602;51.060;17.226;2022-09-03T06:24:46;2;2;1
44871;PMS7003;30602;51.060;17.226;2022-09-03T06:27:57;6;3;3
44871;PMS7003;30602;51.060;17.226;2022-09-03T06:31:26;5;4;4
44871;PMS7003;30602;51.060;17.226;2022-09-03T06:34:36;4;3;2
44871;PMS7003;30602;51.060;17.226;2022-09-03T06:37:59;6;4;3
44871;PMS7003;30602;51.060;17.226;2022-09-03T06:41:43;3;3;2
44871;PMS7003;30602;51.060;17.226;2022-09-03T06:45:06;4;3;3
44871;PMS7003;30602;51.060;17.226;2022-09-03T06:48:26;4;2;2
44871;PMS7003;30602;51.060;17.226;2022-09-03T06:51:49;6;5;4
44871;PMS7003;30602;51.060;17.226;2022-09-03T06:55:42;6;4;3
44871;PMS7003;30602;51.060;17.226;2022-09-03T06:59:24;5;4;3
44871;PMS7003;30602;51.060;17.226;2022-09-03T07:02:47;5;4;4
44871;PMS7003;30602;51.060;17.226;2022-09-03T07:06:41;4;4;4
44871;PMS7003;30602;51.060;17.226;2022-09-03T07:10:23;5;4;3
44871;PMS7003;30602;51.060;17.226;2022-09-03T07:13:45;3;3;3
44871;PMS7003;30602;51.060;17.226;2022-09-03T07:21:06;5;2;2
44871;PMS7003;30602;51.060;17.226;2022-09-03T07:24:53;5;5;4
44871;PMS7003;30602;51.060;17.226;2022-09-03T07:28:16;7;6;5
44871;PMS7003;30602;51.060;17.226;2022-09-03T07:31:46;6;5;3
44871;PMS7003;30602;51.060;17.226;2022-09-03T07:35:14;7;6;4
44871;PMS7003;30602;51.060;17.226;2022-09-03T07:38:46;9;6;4
44871;PMS7003;30602;51.060;17.226;2022-09-03T07:42:37;4;4;4
44871;PMS7003;30602;51.060;17.226;2022-09-03T07:46:06;5;5;4
44871;PMS7003;30602;51.060;17.226;2022-09-03T07:49:59;6;6;6
44871;PMS7003;30602;51.060;17.226;2022-09-03T07:54:01;8;6;5
44871;PMS7003;30602;51.060;17.226;2022-09-03T07:57:13;5;5;5
44871;PMS7003;30602;51.060;17.226;2022-09-03T08:00:51;7;6;5
44871;PMS7003;30602;51.060;17.226;2022-09-03T08:04:25;7;6;5
44871;PMS7003;30602;51.060;17.226;2022-09-03T08:08:07;8;5;5
44871;PMS7003;30602;51.060;17.226;2022-09-03T08:11:36;6;6;5
44871;PMS7003;30602;51.060;17.226;2022-09-03T08:15:11;5;5;5
44871;PMS7003;30602;51.060;17.226;2022-09-03T08:18:44;7;6;5
44871;PMS7003;30602;51.060;17.226;2022-09-03T08:21:55;5;4;4
44871;PMS7003;30602;51.060;17.226;2022-09-03T08:29:29;4;4;4
44871;PMS7003;30602;51.060;17.226;2022-09-03T08:33:07;7;7;6
44871;PMS7003;30602;51.060;17.226;2022-09-03T08:36:28;4;4;4
44871;PMS7003;30602;51.060;17.226;2022-09-03T08:43:55;3;3;3
44871;PMS7003;30602;51.060;17.226;2022-09-03T08:47:47;8;7;5
44871;PMS7003;30602;51.060;17.226;2022-09-03T08:51:24;7;6;5
44871;PMS7003;30602;51.060;17.226;2022-09-03T08:59:04;6;6;5
44871;PMS7003;30602;51.060;17.226;2022-09-03T09:06:28;7;5;5
44871;PMS7003;30602;51.060;17.226;2022-09-03T09:10:43;5;5;4
44871;PMS7003;30602;51.060;17.226;2022-09-03T09:29:06;7;5;4
44871;PMS7003;30602;51.060;17.226;2022-09-03T09:32:35;7;5;5
44871;PMS7003;30602;51.060;17.226;2022-09-03T09:36:10;5;4;4
44871;PMS7003;30602;51.060;17.226;2022-09-03T09:39:52;4;4;4
44871;PMS7003;30602;51.060;17.226;2022-09-03T09:43:20;4;4;4
44871;PMS7003;30602;51.060;17.226;2022-09-03T09:46:50;5;5;4
44871;PMS7003;30602;51.060;17.226;2022-09-03T09:50:39;6;5;4
44871;PMS7003;30602;51.060;17.226;2022-09-03T09:57:28;4;4;4
44871;PMS7003;30602;51.060;17.226;2022-09-03T10:01:00;5;4;4
44871;PMS7003;30602;51.060;17.226;2022-09-03T10:04:44;8;4;4
44871;PMS7003;30602;51.060;17.226;2022-09-03T10:08:18;8;5;5
44871;PMS7003;30602;51.060;17.226;2022-09-03T10:11:30;8;5;4
44871;PMS7003;30602;51.060;17.226;2022-09-03T10:18:42;5;5;4
44871;PMS7003;30602;51.060;17.226;2022-09-03T10:22:02;5;5;4
44871;PMS7003;30602;51.060;17.226;2022-09-03T10:29:31;5;5;4
44871;PMS7003;30602;51.060;17.226;2022-09-03T10:40:10;5;5;4
44871;PMS7003;30602;51.060;17.226;2022-09-03T10:51:42;5;5;5
44871;PMS7003;30602;51.060;17.226;2022-09-03T11:05:40;5;4;4
44871;PMS7003;30602;51.060;17.226;2022-09-03T11:09:11;5;5;5
44871;PMS7003;30602;51.060;17.226;2022-09-03T11:12:31;5;5;4
44871;PMS7003;30602;51.060;17.226;2022-09-03T11:16:44;5;4;4
44871;PMS7003;30602;51.060;17.226;2022-09-03T11:23:42;5;5;5
44871;PMS7003;30602;51.060;17.226;2022-09-03T11:30:51;5;5;4
44871;PMS7003;30602;51.060;17.226;2022-09-03T11:34:30;5;5;5
44871;PMS7003;30602;51.060;17.226;2022-09-03T11:37:52;7;6;5
44871;PMS7003;30602;51.060;17.226;2022-09-03T11:41:13;6;6;5
44871;PMS7003;30602;51.060;17.226;2022-09-03T11:51:31;6;6;5
44871;PMS7003;30602;51.060;17.226;2022-09-03T11:54:57;6;6;5
44871;PMS7003;30602;51.060;17.226;2022-09-03T11:58:29;8;8;5
44871;PMS7003;30602;51.060;17.226;2022-09-03T12:01:46;7;5;4
44871;PMS7003;30602;51.060;17.226;2022-09-03T12:19:02;6;5;4
44871;PMS7003;30602;51.060;17.226;2022-09-03T12:22:40;6;5;5
44871;PMS7003;30602;51.060;17.226;2022-09-03T12:26:09;6;5;4
44871;PMS7003;30602;51.060;17.226;2022-09-03T12:29:24;7;6;4
44871;PMS7003;30602;51.060;17.226;2022-09-03T12:36:19;5;4;4
44871;PMS7003;30602;51.060;17.226;2022-09-03T12:46:42;5;5;4
44871;PMS7003;30602;51.060;17.226;2022-09-03T12:49:56;6;5;4
44871;PMS7003;30602;51.060;17.226;2022-09-03T12:53:11;6;5;5
44871;PMS7003;30602;51.060;17.226;2022-09-03T12:57:24;6;4;4
44871;PMS7003;30602;51.060;17.226;2022-09-03T13:01:28;6;6;5
44871;PMS7003;30602;51.060;17.226;2022-09-03T13:05:01;6;5;4
44871;PMS7003;30602;51.060;17.226;2022-09-03T13:08:45;6;6;5
44871;PMS7003;30602;51.060;17.226;2022-09-03T13:12:00;9;6;5
44871;PMS7003;30602;51.060;17.226;2022-09-03T13:15:16;6;6;5
44871;PMS7003;30602;51.060;17.226;2022-09-03T13:19:07;6;5;5
44871;PMS7003;30602;51.060;17.226;2022-09-03T13:22:31;7;6;5
44871;PMS7003;30602;51.060;17.226;2022-09-03T13:26:07;6;6;5
44871;PMS7003;30602;51.060;17.226;2022-09-03T13:33:21;7;6;6
44871;PMS7003;30602;51.060;17.226;2022-09-03T13:40:45;5;5;4
44871;PMS7003;30602;51.060;17.226;2022-09-03T13:44:05;6;6;5
44871;PMS7003;30602;51.060;17.226;2022-09-03T13:58:56;5;5;4
44871;PMS7003;30602;51.060;17.226;2022-09-03T14:20:52;9;7;6
44871;PMS7003;30602;51.060;17.226;2022-09-03T14:24:25;6;6;5
44871;PMS7003;30602;51.060;17.226;2022-09-03T14:27:53;11;9;7
44871;PMS7003;30602;51.060;17.226;2022-09-03T14:31:14;11;7;6
44871;PMS7003;30602;51.060;17.226;2022-09-03T14:49:37;8;8;6
44871;PMS7003;30602;51.060;17.226;2022-09-03T15:01:09;8;8;8
44871;PMS7003;30602;51.060;17.226;2022-09-03T15:08:07;9;8;6
44871;PMS7003;30602;51.060;17.226;2022-09-03T15:19:09;10;8;7
44871;PMS7003;30602;51.060;17.226;2022-09-03T15:36:17;14;10;8
44871;PMS7003;30602;51.060;17.226;2022-09-03T15:43:35;9;9;9
44871;PMS7003;30602;51.060;17.226;2022-09-03T15:50:33;9;9;8
44871;PMS7003;30602;51.060;17.226;2022-09-03T15:54:11;9;8;7
44871;PMS7003;30602;51.060;17.226;2022-09-03T15:57:39;10;9;8
44871;PMS7003;30602;51.060;17.226;2022-09-03T16:08:18;9;7;7
44871;PMS7003;30602;51.060;17.226;2022-09-03T16:15:39;11;11;9
44871;PMS7003;30602;51.060;17.226;2022-09-03T16:19:46;17;17;13
44871;PMS7003;30602;51.060;17.226;2022-09-03T16:23:37;18;15;12
44871;PMS7003;30602;51.060;17.226;2022-09-03T16:26:57;15;13;11
44871;PMS7003;30602;51.060;17.226;2022-09-03T16:42:12;23;20;16
44871;PMS7003;30602;51.060;17.226;2022-09-03T16:45:47;20;17;14
44871;PMS7003;30602;51.060;17.226;2022-09-03T16:50:00;19;18;15
44871;PMS7003;30602;51.060;17.226;2022-09-03T16:53:12;9;8;6
44871;PMS7003;30602;51.060;17.226;2022-09-03T17:03:29;8;8;7
44871;PMS7003;30602;51.060;17.226;2022-09-03T17:17:39;10;9;8
44871;PMS7003;30602;51.060;17.226;2022-09-03T17:21:18;11;10;8
44871;PMS7003;30602;51.060;17.226;2022-09-03T17:24:40;11;9;8
44871;PMS7003;30602;51.060;17.226;2022-09-03T17:31:27;10;9;8
44871;PMS7003;30602;51.060;17.226;2022-09-03T17:42:29;15;14;12
44871;PMS7003;30602;51.060;17.226;2022-09-03T17:49:30;16;15;12
44871;PMS7003;30602;51.060;17.226;2022-09-03T17:52:47;15;14;11
44871;PMS7003;30602;51.060;17.226;2022-09-03T17:56:41;18;13;11
44871;PMS7003;30602;51.060;17.226;2022-09-03T18:00:22;16;15;11
44871;PMS7003;30602;51.060;17.226;2022-09-03T18:21:07;22;16;13
44871;PMS7003;30602;51.060;17.226;2022-09-03T18:28:39;18;15;14
44871;PMS7003;30602;51.060;17.226;2022-09-03T18:32:34;18;16;13
44871;PMS7003;30602;51.060;17.226;2022-09-03T18:36:25;17;16;12
44871;PMS7003;30602;51.060;17.226;2022-09-03T18:39:48;17;17;13
44871;PMS7003;30602;51.060;17.226;2022-09-03T18:44:04;16;16;14
44871;PMS7003;30602;51.060;17.226;2022-09-03T18:51:23;22;19;14
44871;PMS7003;30602;51.060;17.226;2022-09-03T18:58:48;20;17;15
44871;PMS7003;30602;51.060;17.226;2022-09-03T19:21:52;23;19;15
44871;PMS7003;30602;51.060;17.226;2022-09-03T19:25:29;17;15;13
44871;PMS7003;30602;51.060;17.226;2022-09-03T19:29:20;22;19;14
44871;PMS7003;30602;51.060;17.226;2022-09-03T19:40:31;24;22;16
44871;PMS7003;30602;51.060;17.226;2022-09-03T19:48:06;20;20;16
44871;PMS7003;30602;51.060;17.226;2022-09-03T19:55:03;18;18;13
44871;PMS7003;30602;51.060;17.226;2022-09-03T19:58:25;19;17;14
44871;PMS7003;30602;51.060;17.226;2022-09-03T20:02:12;17;15;12
44871;PMS7003;30602;51.060;17.226;2022-09-03T20:06:07;17;16;13
44871;PMS7003;30602;51.060;17.226;2022-09-03T20:09:52;15;13;11
44871;PMS7003;30602;51.060;17.226;2022-09-03T20:13:38;14;13;11
44871;PMS7003;30602;51.060;17.226;2022-09-03T20:17:45;17;16;13
44871;PMS7003;30602;51.060;17.226;2022-09-03T20:40:11;24;21;16
44871;PMS7003;30602;51.060;17.226;2022-09-03T20:51:28;17;15;13
44871;PMS7003;30602;51.060;17.226;2022-09-03T20:55:22;20;18;15
44871;PMS7003;30602;51.060;17.226;2022-09-03T21:10:30;20;18;14
44871;PMS7003;30602;51.060;17.226;2022-09-03T21:17:31;16;14;11
44871;PMS7003;30602;51.060;17.226;2022-09-03T21:25:40;20;20;16
44871;PMS7003;30602;51.060;17.226;2022-09-03T21:39:54;23;20;14
44871;PMS7003;30602;51.060;17.226;2022-09-03T21:46:25;24;21;16
44871;PMS7003;30602;51.060;17.226;2022-09-03T21:53:02;21;21;17
44871;PMS7003;30602;51.060;17.226;2022-09-03T21:56:26;22;22;16
44871;PMS7003;30602;51.060;17.226;2022-09-03T22:00:25;27;22;16
44871;PMS7003;30602;51.060;17.226;2022-09-03T22:04:22;31;27;21
44871;PMS7003;30602;51.060;17.226;2022-09-03T22:08:06;27;25;20
44871;PMS7003;30602;51.060;17.226;2022-09-03T22:11:55;27;24;19
44871;PMS7003;30602;51.060;17.226;2022-09-03T22:15:33;30;29;20
44871;PMS7003;30602;51.060;17.226;2022-09-03T22:18:51;24;22;15
44871;PMS7003;30602;51.060;17.226;2022-09-03T22:22:32;29;25;20
44871;PMS7003;30602;51.060;17.226;2022-09-03T22:26:02;24;24;18
44871;PMS7003;30602;51.060;17.226;2022-09-03T22:40:12;29;25;19
44871;PMS7003;30602;51.060;17.226;2022-09-03T22:47:26;31;24;16
44871;PMS7003;30602;51.060;17.226;2022-09-03T22:58:03;26;25;19
44871;PMS7003;30602;51.060;17.226;2022-09-03T23:08:43;28;25;19
44871;PMS7003;30602;51.060;17.226;2022-09-03T23:11:57;28;24;20
44871;PMS7003;30602;51.060;17.226;2022-09-03T23:15:25;25;24;18
44871;PMS7003;30602;51.060;17.226;2022-09-03T23:18:40;26;24;19
44871;PMS7003;30602;51.060;17.226;2022-09-03T23:22:14;25;22;16
44871;PMS7003;30602;51.060;17.226;2022-09-03T23:25:51;24;22;16
44871;PMS7003;30602;51.060;17.226;2022-09-03T23:29:38;27;24;18
44871;PMS7003;30602;51.060;17.226;2022-09-03T23:33:16;26;25;19
44871;PMS7003;30602;51.060;17.226;2022-09-03T23:58:10;28;25;18
